createdAt,value
2022-10-29T00:01:31.152Z,18.45
2022-10-29T00:03:58.533Z,26.17
2022-10-29T00:06:25.883Z,17.42
2022-10-29T00:08:53.225Z,17.67
2022-10-29T00:11:22.860Z,30.27
2022-10-29T00:13:54.790Z,21.42
2022-10-29T00:16:23.800Z,25.05
2022-10-29T00:18:51.398Z,21.92
2022-10-29T00:21:20.275Z,25.00
2022-10-29T00:23:47.988Z,20.33
2022-10-29T00:26:15.792Z,27.02
2022-10-29T00:28:44.569Z,23.35
2022-10-29T00:31:13.757Z,20.60
2022-10-29T00:33:41.110Z,24.85
2022-10-29T00:36:13.404Z,24.55
2022-10-29T00:38:41.252Z,18.63
2022-10-29T00:41:11.008Z,18.20
2022-10-29T00:43:39.281Z,27.00
2022-10-29T00:46:10.156Z,19.48
2022-10-29T00:48:40.751Z,24.80
2022-10-29T00:51:09.606Z,19.65
2022-10-29T00:53:40.752Z,21.38
2022-10-29T00:56:08.539Z,28.83
2022-10-29T00:58:35.906Z,19.15
2022-10-29T01:01:03.614Z,23.02
2022-10-29T01:03:32.273Z,29.02
2022-10-29T01:06:01.020Z,23.45
2022-10-29T01:08:28.370Z,26.42
2022-10-29T01:10:59.484Z,25.67
2022-10-29T01:13:35.185Z,18.75
2022-10-29T01:16:10.175Z,24.55
2022-10-29T01:18:42.882Z,23.95
2022-10-29T01:21:31.322Z,18.08
2022-10-29T01:24:23.665Z,29.55
2022-10-29T01:27:16.533Z,25.20
2022-10-29T01:29:55.648Z,27.17
2022-10-29T01:32:29.850Z,26.85
2022-10-29T01:35:00.608Z,24.88
2022-10-29T01:37:32.896Z,23.15
2022-10-29T01:40:05.118Z,25.80
2022-10-29T01:42:37.141Z,18.30
2022-10-29T01:45:10.332Z,26.38
2022-10-29T01:47:42.061Z,23.15
2022-10-29T01:50:11.293Z,32.25
2022-10-29T01:52:39.742Z,21.38
2022-10-29T01:55:08.402Z,20.40
2022-10-29T01:57:50.221Z,23.25
2022-10-29T02:00:19.830Z,21.10
2022-10-29T02:02:56.168Z,28.85
2022-10-29T02:05:29.626Z,26.30
2022-10-29T02:07:59.391Z,22.52
2022-10-29T02:10:29.541Z,25.13
2022-10-29T02:12:57.898Z,26.83
2022-10-29T02:15:28.533Z,19.13
2022-10-29T02:18:01.082Z,21.55
2022-10-29T02:20:28.509Z,23.50
2022-10-29T02:22:56.049Z,27.50
2022-10-29T02:25:23.644Z,24.48
2022-10-29T02:27:51.084Z,30.80
2022-10-29T02:30:18.710Z,23.92
2022-10-29T02:32:46.135Z,30.92
2022-10-29T02:35:14.850Z,31.02
2022-10-29T02:37:42.194Z,30.67
2022-10-29T02:40:10.649Z,27.70
2022-10-29T02:42:38.028Z,28.00
2022-10-29T02:45:06.297Z,28.90
2022-10-29T02:47:33.758Z,20.73
2022-10-29T02:50:01.176Z,29.35
2022-10-29T02:52:29.881Z,28.48
2022-10-29T02:54:57.224Z,30.10
2022-10-29T02:57:24.567Z,25.02
2022-10-29T02:59:51.900Z,25.30
2022-10-29T03:02:19.323Z,28.75
2022-10-29T03:04:46.768Z,23.23
2022-10-29T03:07:14.128Z,27.63
2022-10-29T03:09:42.770Z,26.95
2022-10-29T03:12:10.114Z,25.20
2022-10-29T03:14:37.458Z,30.92
2022-10-29T03:17:04.845Z,24.25
2022-10-29T03:19:32.179Z,27.20
2022-10-29T03:21:59.511Z,35.40
2022-10-29T03:24:26.846Z,26.55
2022-10-29T03:26:55.499Z,31.83
2022-10-29T03:29:23.899Z,28.02
2022-10-29T03:31:51.225Z,33.05
2022-10-29T03:34:18.579Z,31.70
2022-10-29T03:36:45.934Z,25.77
2022-10-29T03:39:13.316Z,35.90
2022-10-29T03:41:40.718Z,25.95
2022-10-29T03:44:09.377Z,33.83
2022-10-29T03:46:36.776Z,32.83
2022-10-29T03:49:04.114Z,24.33
2022-10-29T03:51:31.454Z,25.85
2022-10-29T03:53:58.819Z,30.02
2022-10-29T03:56:26.252Z,33.95
2022-10-29T03:58:53.597Z,28.92
2022-10-29T04:01:22.323Z,26.02
2022-10-29T04:03:49.738Z,27.48
2022-10-29T04:06:18.219Z,27.88
2022-10-29T04:08:45.587Z,26.75
2022-10-29T04:11:13.936Z,24.67
2022-10-29T04:13:41.505Z,27.90
2022-10-29T04:16:09.258Z,35.42
2022-10-29T04:18:37.925Z,24.83
2022-10-29T04:29:27.536Z,31.73
2022-10-29T04:31:54.870Z,25.48
2022-10-29T04:34:23.586Z,29.23
2022-10-29T04:36:52.227Z,19.48
2022-10-29T04:39:22.508Z,24.10
2022-10-29T04:41:50.844Z,31.02
2022-10-29T04:44:18.333Z,33.33
2022-10-29T04:46:45.708Z,32.50
2022-10-29T04:49:13.054Z,24.50
2022-10-29T04:51:41.781Z,25.67
2022-10-29T04:54:09.168Z,32.17
2022-10-29T04:56:36.509Z,30.13
2022-10-29T04:59:03.855Z,27.08
2022-10-29T05:01:31.350Z,23.20
2022-10-29T05:04:00.141Z,27.90
2022-10-29T05:06:27.819Z,29.85
2022-10-29T05:08:56.488Z,31.90
2022-10-29T05:11:23.830Z,26.60
2022-10-29T05:13:51.183Z,21.92
2022-10-29T05:16:18.518Z,24.42
2022-10-29T05:18:45.876Z,46.88
2022-10-29T05:21:13.231Z,29.63
2022-10-29T05:23:40.742Z,28.73
2022-10-29T05:26:09.425Z,32.70
2022-10-29T05:28:36.751Z,23.48
2022-10-29T05:31:04.143Z,31.10
2022-10-29T05:33:31.478Z,27.77
2022-10-29T05:36:00.085Z,26.75
2022-10-29T05:38:27.545Z,30.48
2022-10-29T05:40:54.880Z,28.30
2022-10-29T05:43:23.538Z,24.98
2022-10-29T05:45:50.878Z,32.35
2022-10-29T05:48:18.209Z,44.03
2022-10-29T05:50:45.638Z,35.20
2022-10-29T05:53:14.916Z,38.00
2022-10-29T05:55:42.676Z,29.42
2022-10-29T05:58:11.909Z,32.63
2022-10-29T06:00:42.399Z,28.30
2022-10-29T06:03:13.213Z,28.00
2022-10-29T06:05:40.842Z,31.92
2022-10-29T06:08:08.210Z,35.20
2022-10-29T06:10:35.548Z,27.77
2022-10-29T06:13:02.897Z,29.83
2022-10-29T06:15:30.227Z,35.75
2022-10-29T06:17:59.147Z,27.30
2022-10-29T06:20:26.596Z,31.92
2022-10-29T06:22:58.738Z,28.67
2022-10-29T06:25:27.040Z,23.45
2022-10-29T06:28:01.839Z,29.75
2022-10-29T06:30:30.069Z,27.35
2022-10-29T06:32:59.176Z,21.38
2022-10-29T06:35:27.130Z,32.70
2022-10-29T06:37:54.938Z,30.20
2022-10-29T06:40:22.705Z,30.27
2022-10-29T06:42:50.080Z,28.13
2022-10-29T06:45:17.630Z,20.52
2022-10-29T06:47:45.905Z,22.42
2022-10-29T06:50:14.689Z,23.63
2022-10-29T06:52:42.027Z,24.17
2022-10-29T06:55:10.256Z,25.15
2022-10-29T06:57:38.194Z,23.38
2022-10-29T07:00:08.543Z,19.95
2022-10-29T07:02:36.231Z,24.55
2022-10-29T07:05:03.562Z,21.52
2022-10-29T07:07:32.206Z,21.00
2022-10-29T07:09:59.546Z,26.90
2022-10-29T07:12:26.920Z,20.10
2022-10-29T07:14:54.263Z,22.27
2022-10-29T07:17:21.595Z,24.33
2022-10-29T07:19:48.925Z,21.65
2022-10-29T07:22:16.264Z,133.50
2022-10-29T07:24:44.903Z,51.42
2022-10-29T07:27:12.676Z,26.30
2022-10-29T07:29:40.034Z,20.75
2022-10-29T07:32:07.367Z,22.20
2022-10-29T07:34:34.750Z,21.90
2022-10-29T07:37:02.103Z,21.85
2022-10-29T07:39:29.461Z,23.58
2022-10-29T07:41:59.291Z,19.75
2022-10-29T07:44:26.965Z,26.38
2022-10-29T07:46:54.290Z,17.92
2022-10-29T07:49:21.651Z,21.50
2022-10-29T07:51:49.103Z,19.75
2022-10-29T07:54:16.446Z,20.48
2022-10-29T07:56:46.796Z,20.02
2022-10-29T07:59:17.757Z,23.52
2022-10-29T08:01:45.370Z,15.10
2022-10-29T08:04:13.384Z,23.52
2022-10-29T08:06:40.772Z,21.85
2022-10-29T08:09:08.218Z,19.08
2022-10-29T08:11:35.601Z,23.90
2022-10-29T08:14:02.982Z,19.40
2022-10-29T08:16:31.666Z,22.08
2022-10-29T08:18:59.015Z,18.98
2022-10-29T08:21:26.434Z,19.63
2022-10-29T08:23:53.764Z,19.75
2022-10-29T08:26:21.294Z,15.10
2022-10-29T08:28:48.630Z,16.33
2022-10-29T08:31:16.213Z,21.52
2022-10-29T08:33:44.854Z,25.92
2022-10-29T08:36:12.188Z,17.52
2022-10-29T08:38:39.521Z,19.77
2022-10-29T08:41:19.399Z,20.55
2022-10-29T08:44:14.339Z,25.38
2022-10-29T08:46:45.255Z,16.65
2022-10-29T08:49:18.421Z,17.25
2022-10-29T08:51:50.409Z,23.92
2022-10-29T08:54:30.972Z,21.13
2022-10-29T08:57:00.374Z,18.95
2022-10-29T08:59:30.615Z,21.88
2022-10-29T09:01:58.072Z,16.65
2022-10-29T09:04:28.315Z,18.63
2022-10-29T09:07:14.882Z,18.17
2022-10-29T09:09:45.399Z,20.27
2022-10-29T09:12:45.423Z,21.50
2022-10-29T09:15:20.011Z,22.15
2022-10-29T09:17:53.440Z,25.13
2022-10-29T09:22:57.754Z,22.10
2022-10-29T09:25:28.872Z,15.63
2022-10-29T09:28:06.242Z,17.88
2022-10-29T09:30:38.257Z,20.27
2022-10-29T09:33:09.778Z,20.45
2022-10-29T09:35:40.745Z,17.05
2022-10-29T09:38:13.952Z,17.55
2022-10-29T09:40:42.520Z,21.23
2022-10-29T09:43:18.827Z,18.20
2022-10-29T09:45:51.751Z,21.33
2022-10-29T09:48:23.547Z,16.25
2022-10-29T09:50:56.701Z,25.55
2022-10-29T09:53:24.072Z,16.88
2022-10-29T09:55:53.712Z,18.10
2022-10-29T09:58:23.153Z,19.13
2022-10-29T10:00:51.015Z,14.13
2022-10-29T10:03:22.770Z,16.73
2022-10-29T10:06:02.556Z,20.88
2022-10-29T10:08:30.735Z,18.98
2022-10-29T10:11:00.431Z,20.45
2022-10-29T10:13:30.111Z,19.10
2022-10-29T10:15:59.039Z,14.68
2022-10-29T10:18:27.268Z,14.82
2022-10-29T10:21:05.995Z,20.58
2022-10-29T10:23:52.583Z,20.35
2022-10-29T10:26:34.454Z,22.75
2022-10-29T10:29:15.562Z,21.27
2022-10-29T10:31:44.416Z,17.73
2022-10-29T10:34:19.637Z,14.85
2022-10-29T10:36:52.865Z,19.13
2022-10-29T10:39:24.486Z,26.13
2022-10-29T10:41:52.136Z,17.40
2022-10-29T10:44:20.649Z,22.63
2022-10-29T10:46:48.268Z,23.73
2022-10-29T10:49:17.658Z,16.65
2022-10-29T10:51:46.068Z,16.30
2022-10-29T10:54:27.891Z,19.00
2022-10-29T10:56:58.685Z,18.40
2022-10-29T10:59:28.416Z,28.20
2022-10-29T11:01:56.005Z,16.00
2022-10-29T11:04:27.720Z,17.90
2022-10-29T11:06:56.206Z,17.60
2022-10-29T11:09:27.010Z,16.10
2022-10-29T11:11:59.172Z,15.18
2022-10-29T11:14:28.848Z,17.88
2022-10-29T11:16:57.599Z,14.90
2022-10-29T11:19:31.356Z,16.25
2022-10-29T11:22:09.647Z,16.35
2022-10-29T11:24:45.419Z,15.27
2022-10-29T11:27:22.517Z,18.40
2022-10-29T11:29:54.909Z,16.80
2022-10-29T11:32:25.031Z,19.60
2022-10-29T11:34:57.008Z,14.73
2022-10-29T11:37:30.623Z,19.60
2022-10-29T11:40:03.229Z,25.23
2022-10-29T11:42:30.772Z,17.15
2022-10-29T11:44:59.486Z,19.50
2022-10-29T11:47:38.502Z,18.33
2022-10-29T11:50:20.076Z,19.55
2022-10-29T11:52:51.801Z,18.42
2022-10-29T11:55:31.494Z,20.52
2022-10-29T11:58:01.371Z,17.75
2022-10-29T12:00:33.098Z,15.18
2022-10-29T12:03:24.128Z,20.55
2022-10-29T12:05:59.805Z,23.48
2022-10-29T12:08:38.384Z,18.90
2022-10-29T12:11:12.403Z,15.30
2022-10-29T12:13:52.606Z,17.67
2022-10-29T12:16:30.814Z,21.33
2022-10-29T12:19:04.843Z,16.05
2022-10-29T12:21:36.932Z,29.27
2022-10-29T12:24:16.105Z,23.55
2022-10-29T12:26:45.969Z,16.88
2022-10-29T12:29:17.947Z,16.05
2022-10-29T12:31:50.198Z,25.00
2022-10-29T12:34:24.971Z,25.83
2022-10-29T12:36:57.683Z,17.40
2022-10-29T12:39:28.648Z,27.65
2022-10-29T12:42:01.841Z,24.92
2022-10-29T12:44:35.086Z,20.85
2022-10-29T12:47:07.074Z,26.90
2022-10-29T12:49:45.291Z,29.65
2022-10-29T12:52:15.191Z,23.95
2022-10-29T12:54:43.809Z,26.05
2022-10-29T12:57:29.201Z,19.25
2022-10-29T12:59:56.832Z,26.63
2022-10-29T13:02:30.082Z,21.45
2022-10-29T13:05:30.876Z,19.45
2022-10-29T13:08:33.081Z,29.02
2022-10-29T13:11:00.528Z,23.52
2022-10-29T13:13:54.891Z,21.60
2022-10-29T13:16:26.954Z,28.30
2022-10-29T13:19:22.753Z,23.95
2022-10-29T13:21:58.084Z,24.85
2022-10-29T13:24:25.996Z,23.35
2022-10-29T13:27:01.213Z,28.17
2022-10-29T13:29:47.054Z,27.67
2022-10-29T13:32:34.091Z,17.90
2022-10-29T13:35:02.359Z,24.48
2022-10-29T13:38:15.963Z,24.90
2022-10-29T13:41:08.390Z,31.27
2022-10-29T13:43:35.806Z,20.60
2022-10-29T13:46:36.857Z,28.55
2022-10-29T13:49:11.943Z,30.70
2022-10-29T13:54:16.069Z,25.40
2022-10-29T13:56:46.983Z,26.50
2022-10-29T13:59:22.120Z,27.60
2022-10-29T14:02:00.535Z,27.58
2022-10-29T14:04:31.673Z,28.92
2022-10-29T14:07:00.955Z,31.20
2022-10-29T14:09:35.560Z,25.13
2022-10-29T14:12:06.295Z,29.38
2022-10-29T14:14:36.907Z,22.35
2022-10-29T14:17:13.502Z,30.02
2022-10-29T14:19:45.597Z,24.63
2022-10-29T14:22:33.312Z,27.88
2022-10-29T14:25:01.805Z,26.55
2022-10-29T14:27:29.393Z,29.63
2022-10-29T14:30:12.252Z,27.45
2022-10-29T14:32:42.048Z,27.63
2022-10-29T14:35:15.619Z,23.35
2022-10-29T14:37:44.228Z,25.80
2022-10-29T14:40:17.750Z,25.58
2022-10-29T14:42:46.672Z,26.50
2022-10-29T14:45:19.249Z,30.13
2022-10-29T14:47:51.933Z,26.08
2022-10-29T14:50:21.977Z,25.20
2022-10-29T14:52:53.810Z,37.25
2022-10-29T14:55:23.750Z,35.15
2022-10-29T14:57:59.595Z,32.72
2022-10-29T15:00:29.900Z,29.80
2022-10-29T15:02:59.285Z,39.88
2022-10-29T15:05:28.673Z,36.05
2022-10-29T15:08:07.148Z,26.92
2022-10-29T15:10:45.367Z,36.42
2022-10-29T15:13:22.402Z,27.25
2022-10-29T15:15:54.732Z,27.25
2022-10-29T15:18:24.149Z,27.50
2022-10-29T15:20:52.342Z,31.55
2022-10-29T15:23:21.505Z,32.72
2022-10-29T15:25:50.715Z,32.55
2022-10-29T15:28:23.363Z,38.92
2022-10-29T15:30:50.749Z,25.08
2022-10-29T15:33:19.317Z,28.58
2022-10-29T15:35:52.343Z,27.95
2022-10-29T15:39:02.849Z,31.48
2022-10-29T15:41:34.181Z,42.65
2022-10-29T15:44:01.566Z,27.65
2022-10-29T15:46:30.592Z,29.48
2022-10-29T15:48:57.937Z,34.13
2022-10-29T15:51:27.760Z,30.95
2022-10-29T15:53:56.755Z,30.65
2022-10-29T15:56:25.055Z,33.17
2022-10-29T15:58:52.815Z,33.88
2022-10-29T16:01:20.317Z,34.88
2022-10-29T16:03:47.784Z,34.42
2022-10-29T16:06:16.266Z,27.35
2022-10-29T16:08:48.698Z,33.95
2022-10-29T16:11:20.016Z,32.80
2022-10-29T16:13:53.434Z,26.08
2022-10-29T16:16:24.105Z,26.83
2022-10-29T16:18:52.610Z,29.77
2022-10-29T16:21:21.783Z,37.38
2022-10-29T16:23:51.344Z,31.77
2022-10-29T16:26:20.082Z,32.40
2022-10-29T16:28:47.629Z,36.92
2022-10-29T16:31:19.611Z,38.10
2022-10-29T16:33:47.177Z,36.28
2022-10-29T16:36:14.507Z,31.40
2022-10-29T16:38:42.453Z,27.98
2022-10-29T16:41:12.567Z,34.17
2022-10-29T16:43:40.043Z,37.70
2022-10-29T16:46:07.652Z,34.03
2022-10-29T16:48:35.354Z,28.85
2022-10-29T16:51:02.960Z,34.65
2022-10-29T16:53:30.396Z,43.85
2022-10-29T16:55:57.782Z,31.88
2022-10-29T16:58:26.670Z,24.83
2022-10-29T17:01:02.579Z,32.80
2022-10-29T17:03:30.039Z,35.78
2022-10-29T17:06:04.030Z,29.75
2022-10-29T17:08:33.132Z,36.38
2022-10-29T17:11:00.861Z,27.95
2022-10-29T17:13:29.545Z,30.30
2022-10-29T17:15:56.878Z,30.38
2022-10-29T17:18:24.755Z,37.42
2022-10-29T17:20:56.336Z,38.50
2022-10-29T17:23:23.900Z,36.03
2022-10-29T17:25:55.122Z,33.70
2022-10-29T17:28:23.083Z,39.30
2022-10-29T17:30:51.757Z,43.63
2022-10-29T17:33:19.238Z,29.58
2022-10-29T17:35:46.700Z,32.45
2022-10-29T17:38:14.097Z,37.55
2022-10-29T17:40:43.780Z,29.30
2022-10-29T17:43:11.172Z,34.17
2022-10-29T17:45:38.511Z,34.45
2022-10-29T17:48:08.272Z,35.95
2022-10-29T17:50:35.683Z,32.53
2022-10-29T17:53:03.226Z,30.25
2022-10-29T17:55:30.607Z,33.00
2022-10-29T17:57:58.161Z,32.67
2022-10-29T18:00:26.292Z,41.10
2022-10-29T18:02:53.663Z,42.42
2022-10-29T18:05:22.797Z,33.08
2022-10-29T18:07:50.135Z,36.28
2022-10-29T18:10:17.864Z,31.90
2022-10-29T18:12:45.268Z,41.33
2022-10-29T18:15:12.641Z,43.65
2022-10-29T18:17:40.591Z,32.95
2022-10-29T18:20:08.877Z,39.78
2022-10-29T18:22:37.563Z,33.97
2022-10-29T18:25:05.479Z,40.20
2022-10-29T18:27:32.838Z,39.83
2022-10-29T18:30:00.201Z,36.10
2022-10-29T18:32:27.567Z,37.03
2022-10-29T18:34:54.897Z,39.33
2022-10-29T18:37:22.243Z,42.65
2022-10-29T18:39:51.479Z,40.08
2022-10-29T18:42:18.810Z,55.00
2022-10-29T18:44:46.199Z,115.18
2022-10-29T18:47:13.531Z,117.88
2022-10-29T18:49:40.860Z,123.43
2022-10-29T18:52:08.202Z,96.70
2022-10-29T18:54:35.614Z,242.55
2022-10-29T18:57:04.341Z,182.98
2022-10-29T18:59:31.680Z,152.05
2022-10-29T19:01:59.099Z,96.25
2022-10-29T19:04:26.592Z,79.43
2022-10-29T19:06:54.765Z,61.88
2022-10-29T19:09:22.093Z,59.00
2022-10-29T19:11:53.962Z,59.92
2022-10-29T19:14:25.482Z,53.80
2022-10-29T19:16:52.822Z,52.15
2022-10-29T19:19:22.936Z,53.60
2022-10-29T19:21:51.518Z,56.55
2022-10-29T19:24:19.133Z,51.03
2022-10-29T19:26:46.501Z,58.05
2022-10-29T19:29:14.271Z,50.45
2022-10-29T19:31:48.054Z,47.47
2022-10-29T19:36:42.723Z,49.50
2022-10-29T19:39:10.088Z,49.15
2022-10-29T19:41:37.446Z,54.95
2022-10-29T19:44:05.020Z,50.20
2022-10-29T19:46:32.386Z,51.90
2022-10-29T19:49:01.281Z,50.17
2022-10-29T19:51:28.993Z,53.17
2022-10-29T19:53:57.906Z,56.47
2022-10-29T19:56:25.290Z,53.53
2022-10-29T19:58:52.647Z,41.80
2022-10-29T20:01:20.334Z,49.05
2022-10-29T20:03:48.204Z,41.42
2022-10-29T20:06:17.684Z,45.35
2022-10-29T20:08:45.076Z,44.53
2022-10-29T20:11:12.437Z,41.72
2022-10-29T20:13:40.541Z,43.58
2022-10-29T20:16:09.043Z,44.17
2022-10-29T20:18:38.064Z,47.90
2022-10-29T20:23:39.223Z,35.42
2022-10-29T20:26:07.927Z,39.30
2022-10-29T20:28:35.391Z,37.08
2022-10-29T20:31:29.754Z,39.67
2022-10-29T20:33:59.176Z,40.88
2022-10-29T20:36:29.017Z,45.28
2022-10-29T20:38:57.691Z,39.78
2022-10-29T20:41:25.076Z,34.53
2022-10-29T20:43:53.677Z,38.95
2022-10-29T20:46:21.112Z,41.55
2022-10-29T20:48:48.571Z,48.95
2022-10-29T20:51:17.124Z,36.97
2022-10-29T20:53:45.087Z,42.80
2022-10-29T20:56:16.226Z,38.55
2022-10-29T20:58:44.289Z,43.20
2022-10-29T21:01:13.276Z,37.92
2022-10-29T21:03:40.788Z,37.83
2022-10-29T21:06:13.983Z,33.38
2022-10-29T21:08:44.167Z,42.28
2022-10-29T21:11:13.723Z,38.50
2022-10-29T21:13:41.247Z,36.95
2022-10-29T21:16:10.011Z,39.45
2022-10-29T21:18:39.021Z,37.08
2022-10-29T21:21:06.789Z,37.72
2022-10-29T21:23:34.392Z,39.97
2022-10-29T21:26:04.287Z,47.80
2022-10-29T21:28:32.992Z,58.70
2022-10-29T21:31:00.572Z,62.90
2022-10-29T21:33:28.086Z,67.18
2022-10-29T21:35:56.783Z,56.80
2022-10-29T21:38:25.342Z,58.97
2022-10-29T21:40:52.930Z,65.88
2022-10-29T21:43:21.860Z,66.10
2022-10-29T21:45:51.820Z,65.70
2022-10-29T21:48:19.560Z,69.15
2022-10-29T21:50:47.168Z,65.72
2022-10-29T21:55:46.792Z,67.22
2022-10-29T21:58:14.156Z,61.58
2022-10-29T22:00:41.488Z,61.03
2022-10-29T22:03:10.142Z,62.90
2022-10-29T22:05:37.489Z,67.32
2022-10-29T22:08:04.979Z,70.22
2022-10-29T22:10:32.370Z,73.15
2022-10-29T22:13:00.116Z,77.65
2022-10-29T22:15:27.673Z,74.65
2022-10-29T22:17:55.013Z,74.18
2022-10-29T22:20:23.648Z,79.47
2022-10-29T22:22:51.043Z,72.00
2022-10-29T22:25:18.378Z,70.63
2022-10-29T22:27:45.744Z,64.63
2022-10-29T22:30:13.324Z,71.60
2022-10-29T22:32:42.051Z,68.22
2022-10-29T22:35:09.911Z,70.47
2022-10-29T22:37:38.608Z,70.15
2022-10-29T22:40:07.048Z,59.60
2022-10-29T22:42:34.410Z,63.95
2022-10-29T22:45:01.755Z,67.70
2022-10-29T22:47:29.095Z,77.95
2022-10-29T22:49:59.233Z,63.67
2022-10-29T22:52:26.580Z,65.28
2022-10-29T22:54:55.263Z,59.83
2022-10-29T22:57:22.624Z,64.00
2022-10-29T22:59:49.954Z,57.90
2022-10-29T23:02:17.434Z,58.08
2022-10-29T23:04:44.905Z,54.75
2022-10-29T23:07:12.238Z,57.88
2022-10-29T23:09:39.606Z,65.43
2022-10-29T23:12:08.335Z,53.92
2022-10-29T23:14:35.714Z,58.38
2022-10-29T23:17:03.047Z,54.00
2022-10-29T23:19:30.387Z,56.88
2022-10-29T23:21:57.731Z,51.08
2022-10-29T23:24:25.123Z,49.10
2022-10-29T23:26:52.473Z,50.17
2022-10-29T23:29:21.122Z,49.45
2022-10-29T23:31:48.493Z,60.70
2022-10-29T23:34:16.055Z,50.10
2022-10-29T23:36:43.475Z,60.63
2022-10-29T23:39:12.501Z,61.45
2022-10-29T23:41:39.842Z,62.80
2022-10-29T23:44:07.191Z,62.50
2022-10-29T23:46:35.847Z,64.88
2022-10-29T23:49:03.164Z,67.45
2022-10-29T23:51:30.527Z,64.40
2022-10-29T23:53:57.925Z,69.63
2022-10-29T23:56:25.711Z,92.47
2022-10-29T23:58:53.115Z,71.88
